sensor_id;sensor_type;location;lat;lon;timestamp;temperature;humidity
582;DHT22;277;50.074;8.436;2023-08-12T00:01:03;20.40;99.90
582;DHT22;277;50.074;8.436;2023-08-12T00:03:31;20.50;99.90
582;DHT22;277;50.074;8.436;2023-08-12T00:05:59;20.50;99.90
582;DHT22;277;50.074;8.436;2023-08-12T00:08:28;20.50;99.90
582;DHT22;277;50.074;8.436;2023-08-12T00:10:56;20.50;99.90
582;DHT22;277;50.074;8.436;2023-08-12T00:13:24;20.50;99.90
582;DHT22;277;50.074;8.436;2023-08-12T00:15:52;20.50;99.90
582;DHT22;277;50.074;8.436;2023-08-12T00:18:22;20.50;99.90
582;DHT22;277;50.074;8.436;2023-08-12T00:20:50;20.50;99.90
582;DHT22;277;50.074;8.436;2023-08-12T00:23:18;20.50;99.90
582;DHT22;277;50.074;8.436;2023-08-12T00:25:49;20.50;99.90
582;DHT22;277;50.074;8.436;2023-08-12T00:28:17;20.50;99.90
582;DHT22;277;50.074;8.436;2023-08-12T00:30:47;20.50;99.90
582;DHT22;277;50.074;8.436;2023-08-12T00:33:15;20.50;99.90
582;DHT22;277;50.074;8.436;2023-08-12T00:35:46;20.50;99.90
582;DHT22;277;50.074;8.436;2023-08-12T00:38:14;20.50;99.90
582;DHT22;277;50.074;8.436;2023-08-12T00:40:42;20.50;99.90
582;DHT22;277;50.074;8.436;2023-08-12T00:43:10;20.50;99.90
582;DHT22;277;50.074;8.436;2023-08-12T00:45:38;20.50;99.90
582;DHT22;277;50.074;8.436;2023-08-12T00:48:07;20.50;99.90
582;DHT22;277;50.074;8.436;2023-08-12T00:50:40;20.40;99.90
582;DHT22;277;50.074;8.436;2023-08-12T00:53:11;20.40;99.90
582;DHT22;277;50.074;8.436;2023-08-12T00:55:40;20.50;99.90
582;DHT22;277;50.074;8.436;2023-08-12T00:58:08;20.50;99.90
582;DHT22;277;50.074;8.436;2023-08-12T01:00:36;20.50;99.90
582;DHT22;277;50.074;8.436;2023-08-12T01:03:05;20.60;99.90
582;DHT22;277;50.074;8.436;2023-08-12T01:05:34;20.60;99.90
582;DHT22;277;50.074;8.436;2023-08-12T01:08:05;20.60;99.90
582;DHT22;277;50.074;8.436;2023-08-12T01:10:37;20.60;99.90
582;DHT22;277;50.074;8.436;2023-08-12T01:13:16;20.70;99.90
582;DHT22;277;50.074;8.436;2023-08-12T01:15:48;20.70;99.90
582;DHT22;277;50.074;8.436;2023-08-12T01:18:19;20.70;99.90
582;DHT22;277;50.074;8.436;2023-08-12T01:20:47;20.70;99.90
582;DHT22;277;50.074;8.436;2023-08-12T01:23:17;20.70;99.90
582;DHT22;277;50.074;8.436;2023-08-12T01:25:46;20.80;99.90
582;DHT22;277;50.074;8.436;2023-08-12T01:28:14;20.90;99.90
582;DHT22;277;50.074;8.436;2023-08-12T01:30:48;20.90;99.90
582;DHT22;277;50.074;8.436;2023-08-12T01:33:27;20.90;99.90
582;DHT22;277;50.074;8.436;2023-08-12T01:36:02;21.00;99.90
582;DHT22;277;50.074;8.436;2023-08-12T01:38:44;21.00;99.90
582;DHT22;277;50.074;8.436;2023-08-12T01:41:14;21.00;99.90
582;DHT22;277;50.074;8.436;2023-08-12T01:43:43;21.00;99.90
582;DHT22;277;50.074;8.436;2023-08-12T01:46:11;21.00;99.90
582;DHT22;277;50.074;8.436;2023-08-12T01:48:39;21.00;99.90
582;DHT22;277;50.074;8.436;2023-08-12T01:51:07;21.10;99.90
582;DHT22;277;50.074;8.436;2023-08-12T01:53:35;21.10;99.90
582;DHT22;277;50.074;8.436;2023-08-12T01:56:04;21.10;99.90
582;DHT22;277;50.074;8.436;2023-08-12T01:58:32;21.10;99.90
582;DHT22;277;50.074;8.436;2023-08-12T02:01:00;21.10;99.90
582;DHT22;277;50.074;8.436;2023-08-12T02:03:28;21.10;99.90
582;DHT22;277;50.074;8.436;2023-08-12T02:05:56;21.10;99.90
582;DHT22;277;50.074;8.436;2023-08-12T02:08:24;21.10;99.90
582;DHT22;277;50.074;8.436;2023-08-12T02:10:52;21.10;99.90
582;DHT22;277;50.074;8.436;2023-08-12T02:13:21;21.10;99.90
582;DHT22;277;50.074;8.436;2023-08-12T02:15:49;21.00;99.90
582;DHT22;277;50.074;8.436;2023-08-12T02:18:17;21.10;99.90
582;DHT22;277;50.074;8.436;2023-08-12T02:20:47;21.10;99.90
582;DHT22;277;50.074;8.436;2023-08-12T02:23:15;21.10;99.90
582;DHT22;277;50.074;8.436;2023-08-12T02:25:46;21.10;99.90
582;DHT22;277;50.074;8.436;2023-08-12T02:28:14;21.00;99.90
582;DHT22;277;50.074;8.436;2023-08-12T02:30:44;21.00;99.90
582;DHT22;277;50.074;8.436;2023-08-12T02:33:12;20.90;99.90
582;DHT22;277;50.074;8.436;2023-08-12T02:35:40;21.00;99.90
582;DHT22;277;50.074;8.436;2023-08-12T02:38:07;21.00;99.90
582;DHT22;277;50.074;8.436;2023-08-12T02:40:35;21.10;99.90
582;DHT22;277;50.074;8.436;2023-08-12T02:43:03;21.00;99.90
582;DHT22;277;50.074;8.436;2023-08-12T02:45:32;21.20;99.90
582;DHT22;277;50.074;8.436;2023-08-12T02:48:01;21.20;99.90
582;DHT22;277;50.074;8.436;2023-08-12T02:50:29;21.20;99.90
582;DHT22;277;50.074;8.436;2023-08-12T02:52:57;21.20;99.90
582;DHT22;277;50.074;8.436;2023-08-12T02:55:25;21.20;99.90
582;DHT22;277;50.074;8.436;2023-08-12T02:57:53;21.20;99.90
582;DHT22;277;50.074;8.436;2023-08-12T03:00:21;21.10;99.90
582;DHT22;277;50.074;8.436;2023-08-12T03:02:49;21.10;99.90
582;DHT22;277;50.074;8.436;2023-08-12T03:05:19;21.10;99.90
582;DHT22;277;50.074;8.436;2023-08-12T03:07:47;21.20;99.90
582;DHT22;277;50.074;8.436;2023-08-12T03:10:15;21.00;99.90
582;DHT22;277;50.074;8.436;2023-08-12T03:12:43;21.00;99.90
582;DHT22;277;50.074;8.436;2023-08-12T03:15:11;21.00;99.90
582;DHT22;277;50.074;8.436;2023-08-12T03:17:39;20.80;99.90
582;DHT22;277;50.074;8.436;2023-08-12T03:20:09;20.80;99.90
582;DHT22;277;50.074;8.436;2023-08-12T03:22:38;20.80;99.90
582;DHT22;277;50.074;8.436;2023-08-12T03:25:07;20.70;99.90
582;DHT22;277;50.074;8.436;2023-08-12T03:27:35;20.70;99.90
582;DHT22;277;50.074;8.436;2023-08-12T03:30:03;20.70;99.90
582;DHT22;277;50.074;8.436;2023-08-12T03:32:31;20.70;99.90
582;DHT22;277;50.074;8.436;2023-08-12T03:35:00;20.60;99.90
582;DHT22;277;50.074;8.436;2023-08-12T03:37:28;20.70;99.90
582;DHT22;277;50.074;8.436;2023-08-12T03:39:57;20.60;99.90
582;DHT22;277;50.074;8.436;2023-08-12T03:42:25;20.50;99.90
582;DHT22;277;50.074;8.436;2023-08-12T03:44:53;20.50;99.90
582;DHT22;277;50.074;8.436;2023-08-12T03:47:21;20.50;99.90
582;DHT22;277;50.074;8.436;2023-08-12T03:49:51;20.50;99.90
582;DHT22;277;50.074;8.436;2023-08-12T03:52:19;20.40;99.90
582;DHT22;277;50.074;8.436;2023-08-12T03:54:47;20.40;99.90
582;DHT22;277;50.074;8.436;2023-08-12T03:57:16;20.30;99.90
582;DHT22;277;50.074;8.436;2023-08-12T03:59:44;20.40;99.90
582;DHT22;277;50.074;8.436;2023-08-12T04:02:12;20.40;99.90
582;DHT22;277;50.074;8.436;2023-08-12T04:04:40;20.30;99.90
582;DHT22;277;50.074;8.436;2023-08-12T04:07:10;20.30;99.90
582;DHT22;277;50.074;8.436;2023-08-12T04:09:39;20.20;99.90
582;DHT22;277;50.074;8.436;2023-08-12T04:12:07;20.20;99.90
582;DHT22;277;50.074;8.436;2023-08-12T04:14:36;20.30;99.90
582;DHT22;277;50.074;8.436;2023-08-12T04:17:04;20.40;99.90
582;DHT22;277;50.074;8.436;2023-08-12T04:19:32;20.50;99.90
582;DHT22;277;50.074;8.436;2023-08-12T04:22:00;20.50;99.90
582;DHT22;277;50.074;8.436;2023-08-12T04:24:28;20.50;99.90
582;DHT22;277;50.074;8.436;2023-08-12T04:26:56;20.50;99.90
582;DHT22;277;50.074;8.436;2023-08-12T04:29:23;20.50;99.90
582;DHT22;277;50.074;8.436;2023-08-12T04:31:53;20.50;99.90
582;DHT22;277;50.074;8.436;2023-08-12T04:34:21;20.50;99.90
582;DHT22;277;50.074;8.436;2023-08-12T04:36:49;20.50;99.90
582;DHT22;277;50.074;8.436;2023-08-12T04:39:16;20.50;99.90
582;DHT22;277;50.074;8.436;2023-08-12T04:41:45;20.50;99.90
582;DHT22;277;50.074;8.436;2023-08-12T04:44:13;20.50;99.90
582;DHT22;277;50.074;8.436;2023-08-12T04:46:41;20.50;99.90
582;DHT22;277;50.074;8.436;2023-08-12T04:49:10;20.50;99.90
582;DHT22;277;50.074;8.436;2023-08-12T04:51:38;20.40;99.90
582;DHT22;277;50.074;8.436;2023-08-12T04:54:06;20.50;99.90
582;DHT22;277;50.074;8.436;2023-08-12T04:56:34;20.50;99.90
582;DHT22;277;50.074;8.436;2023-08-12T04:59:02;20.50;99.90
582;DHT22;277;50.074;8.436;2023-08-12T05:01:30;20.40;99.90
582;DHT22;277;50.074;8.436;2023-08-12T05:03:58;20.40;99.90
582;DHT22;277;50.074;8.436;2023-08-12T05:06:28;20.50;99.90
582;DHT22;277;50.074;8.436;2023-08-12T05:08:55;20.50;99.90
582;DHT22;277;50.074;8.436;2023-08-12T05:11:23;20.50;99.90
582;DHT22;277;50.074;8.436;2023-08-12T05:13:51;20.50;99.90
582;DHT22;277;50.074;8.436;2023-08-12T05:16:19;20.50;99.90
582;DHT22;277;50.074;8.436;2023-08-12T05:18:47;20.50;99.90
582;DHT22;277;50.074;8.436;2023-08-12T05:21:15;20.40;99.90
582;DHT22;277;50.074;8.436;2023-08-12T05:23:44;20.30;99.90
582;DHT22;277;50.074;8.436;2023-08-12T05:26:13;20.40;99.90
582;DHT22;277;50.074;8.436;2023-08-12T05:28:40;20.50;99.90
582;DHT22;277;50.074;8.436;2023-08-12T05:31:08;20.50;99.90
582;DHT22;277;50.074;8.436;2023-08-12T05:33:36;20.60;99.90
582;DHT22;277;50.074;8.436;2023-08-12T05:36:04;20.60;99.90
582;DHT22;277;50.074;8.436;2023-08-12T05:38:32;20.60;99.90
582;DHT22;277;50.074;8.436;2023-08-12T05:41:02;20.60;99.90
582;DHT22;277;50.074;8.436;2023-08-12T05:43:33;20.60;99.90
582;DHT22;277;50.074;8.436;2023-08-12T05:46:01;20.60;99.90
582;DHT22;277;50.074;8.436;2023-08-12T05:48:29;20.70;99.90
582;DHT22;277;50.074;8.436;2023-08-12T05:50:57;20.70;99.90
582;DHT22;277;50.074;8.436;2023-08-12T05:53:25;20.70;99.90
582;DHT22;277;50.074;8.436;2023-08-12T05:55:53;20.70;99.90
582;DHT22;277;50.074;8.436;2023-08-12T05:58:22;20.70;99.90
582;DHT22;277;50.074;8.436;2023-08-12T06:00:50;20.80;99.90
582;DHT22;277;50.074;8.436;2023-08-12T06:03:18;20.80;99.90
582;DHT22;277;50.074;8.436;2023-08-12T06:05:46;20.90;99.90
582;DHT22;277;50.074;8.436;2023-08-12T06:08:15;20.90;99.90
582;DHT22;277;50.074;8.436;2023-08-12T06:10:43;21.00;99.90
582;DHT22;277;50.074;8.436;2023-08-12T06:13:13;21.00;99.90
582;DHT22;277;50.074;8.436;2023-08-12T06:15:42;21.00;99.90
582;DHT22;277;50.074;8.436;2023-08-12T06:18:10;21.00;99.90
582;DHT22;277;50.074;8.436;2023-08-12T06:20:38;21.10;99.90
582;DHT22;277;50.074;8.436;2023-08-12T06:23:06;21.10;99.90
582;DHT22;277;50.074;8.436;2023-08-12T06:25:34;21.10;99.90
582;DHT22;277;50.074;8.436;2023-08-12T06:28:04;21.10;99.90
582;DHT22;277;50.074;8.436;2023-08-12T06:30:32;21.10;99.90
582;DHT22;277;50.074;8.436;2023-08-12T06:33:01;21.20;99.90
582;DHT22;277;50.074;8.436;2023-08-12T06:35:29;21.30;99.90
582;DHT22;277;50.074;8.436;2023-08-12T06:37:57;21.50;99.90
582;DHT22;277;50.074;8.436;2023-08-12T06:40:25;21.50;99.90
582;DHT22;277;50.074;8.436;2023-08-12T06:42:53;21.60;99.90
582;DHT22;277;50.074;8.436;2023-08-12T06:45:21;21.80;99.90
582;DHT22;277;50.074;8.436;2023-08-12T06:47:49;22.00;99.90
582;DHT22;277;50.074;8.436;2023-08-12T06:50:18;22.20;99.90
582;DHT22;277;50.074;8.436;2023-08-12T06:52:46;22.20;99.90
582;DHT22;277;50.074;8.436;2023-08-12T06:55:14;22.20;99.90
582;DHT22;277;50.074;8.436;2023-08-12T06:57:42;22.20;99.90
582;DHT22;277;50.074;8.436;2023-08-12T07:00:11;22.20;99.90
582;DHT22;277;50.074;8.436;2023-08-12T07:02:38;22.20;99.90
582;DHT22;277;50.074;8.436;2023-08-12T07:05:09;22.20;99.90
582;DHT22;277;50.074;8.436;2023-08-12T07:07:38;22.50;99.90
582;DHT22;277;50.074;8.436;2023-08-12T07:10:07;22.70;99.90
582;DHT22;277;50.074;8.436;2023-08-12T07:12:35;22.80;99.90
582;DHT22;277;50.074;8.436;2023-08-12T07:15:04;22.90;99.90
582;DHT22;277;50.074;8.436;2023-08-12T07:17:32;22.90;99.90
582;DHT22;277;50.074;8.436;2023-08-12T07:20:00;23.00;99.90
582;DHT22;277;50.074;8.436;2023-08-12T07:22:28;23.00;99.90
582;DHT22;277;50.074;8.436;2023-08-12T07:24:57;23.00;99.90
582;DHT22;277;50.074;8.436;2023-08-12T07:27:26;23.00;99.90
582;DHT22;277;50.074;8.436;2023-08-12T07:29:54;23.10;99.90
582;DHT22;277;50.074;8.436;2023-08-12T07:32:22;23.20;99.90
582;DHT22;277;50.074;8.436;2023-08-12T07:34:50;23.30;99.90
582;DHT22;277;50.074;8.436;2023-08-12T07:37:18;23.60;99.90
582;DHT22;277;50.074;8.436;2023-08-12T07:39:46;23.80;99.90
582;DHT22;277;50.074;8.436;2023-08-12T07:42:15;24.00;99.90
582;DHT22;277;50.074;8.436;2023-08-12T07:44:44;24.00;99.90
582;DHT22;277;50.074;8.436;2023-08-12T07:47:12;24.10;99.90
582;DHT22;277;50.074;8.436;2023-08-12T07:49:39;24.10;99.90
582;DHT22;277;50.074;8.436;2023-08-12T07:52:07;24.40;99.90
582;DHT22;277;50.074;8.436;2023-08-12T07:54:36;24.50;99.90
582;DHT22;277;50.074;8.436;2023-08-12T07:57:04;24.50;99.90
582;DHT22;277;50.074;8.436;2023-08-12T07:59:33;24.50;99.90
582;DHT22;277;50.074;8.436;2023-08-12T08:02:01;24.50;99.90
582;DHT22;277;50.074;8.436;2023-08-12T08:04:29;24.50;99.90
582;DHT22;277;50.074;8.436;2023-08-12T08:06:57;24.40;99.90
582;DHT22;277;50.074;8.436;2023-08-12T08:09:25;24.40;99.90
582;DHT22;277;50.074;8.436;2023-08-12T08:11:53;24.40;99.90
582;DHT22;277;50.074;8.436;2023-08-12T08:14:23;24.40;99.90
582;DHT22;277;50.074;8.436;2023-08-12T08:16:52;24.30;99.90
582;DHT22;277;50.074;8.436;2023-08-12T08:19:21;24.20;99.90
582;DHT22;277;50.074;8.436;2023-08-12T08:21:56;24.30;99.90
582;DHT22;277;50.074;8.436;2023-08-12T08:24:24;24.30;99.90
582;DHT22;277;50.074;8.436;2023-08-12T08:26:52;24.60;99.90
582;DHT22;277;50.074;8.436;2023-08-12T08:29:21;24.70;99.90
582;DHT22;277;50.074;8.436;2023-08-12T08:31:52;24.90;99.90
582;DHT22;277;50.074;8.436;2023-08-12T08:34:19;24.90;99.90
582;DHT22;277;50.074;8.436;2023-08-12T08:36:47;25.10;99.90
582;DHT22;277;50.074;8.436;2023-08-12T08:39:16;25.20;99.90
582;DHT22;277;50.074;8.436;2023-08-12T08:41:48;25.40;99.90
582;DHT22;277;50.074;8.436;2023-08-12T08:44:17;25.60;99.90
582;DHT22;277;50.074;8.436;2023-08-12T08:46:49;25.80;99.90
582;DHT22;277;50.074;8.436;2023-08-12T08:49:21;26.20;99.90
582;DHT22;277;50.074;8.436;2023-08-12T08:51:51;26.30;99.90
582;DHT22;277;50.074;8.436;2023-08-12T08:54:20;26.20;99.90
582;DHT22;277;50.074;8.436;2023-08-12T08:56:49;26.10;99.90
582;DHT22;277;50.074;8.436;2023-08-12T08:59:22;26.00;99.90
582;DHT22;277;50.074;8.436;2023-08-12T09:01:51;25.90;99.90
582;DHT22;277;50.074;8.436;2023-08-12T09:04:21;25.80;99.90
582;DHT22;277;50.074;8.436;2023-08-12T09:06:51;25.80;99.90
582;DHT22;277;50.074;8.436;2023-08-12T09:09:20;25.60;99.90
582;DHT22;277;50.074;8.436;2023-08-12T09:11:51;25.50;99.90
582;DHT22;277;50.074;8.436;2023-08-12T09:14:20;25.50;99.90
582;DHT22;277;50.074;8.436;2023-08-12T09:16:48;25.50;99.90
582;DHT22;277;50.074;8.436;2023-08-12T09:19:16;25.50;99.90
582;DHT22;277;50.074;8.436;2023-08-12T09:21:51;25.40;99.90
582;DHT22;277;50.074;8.436;2023-08-12T09:24:24;25.40;99.90
582;DHT22;277;50.074;8.436;2023-08-12T09:26:52;25.30;99.90
582;DHT22;277;50.074;8.436;2023-08-12T09:29:22;25.40;99.90
582;DHT22;277;50.074;8.436;2023-08-12T09:31:51;25.50;99.90
582;DHT22;277;50.074;8.436;2023-08-12T09:34:19;25.60;99.90
582;DHT22;277;50.074;8.436;2023-08-12T09:36:48;25.70;99.90
582;DHT22;277;50.074;8.436;2023-08-12T09:39:16;25.90;99.90
582;DHT22;277;50.074;8.436;2023-08-12T09:41:45;26.20;99.90
582;DHT22;277;50.074;8.436;2023-08-12T09:44:13;26.40;99.90
582;DHT22;277;50.074;8.436;2023-08-12T09:46:41;26.70;99.90
582;DHT22;277;50.074;8.436;2023-08-12T09:49:09;26.90;99.90
582;DHT22;277;50.074;8.436;2023-08-12T09:51:37;27.10;99.90
582;DHT22;277;50.074;8.436;2023-08-12T09:54:10;27.20;99.90
582;DHT22;277;50.074;8.436;2023-08-12T09:56:42;27.10;99.90
582;DHT22;277;50.074;8.436;2023-08-12T09:59:12;26.80;99.90
582;DHT22;277;50.074;8.436;2023-08-12T10:01:43;26.70;99.90
582;DHT22;277;50.074;8.436;2023-08-12T10:04:14;26.40;99.90
582;DHT22;277;50.074;8.436;2023-08-12T10:06:45;26.10;99.90
582;DHT22;277;50.074;8.436;2023-08-12T10:09:16;25.90;99.90
582;DHT22;277;50.074;8.436;2023-08-12T10:11:45;25.70;99.90
582;DHT22;277;50.074;8.436;2023-08-12T10:14:14;25.50;99.90
582;DHT22;277;50.074;8.436;2023-08-12T10:16:46;25.30;99.90
582;DHT22;277;50.074;8.436;2023-08-12T10:19:16;24.90;99.90
582;DHT22;277;50.074;8.436;2023-08-12T10:21:45;24.70;99.90
582;DHT22;277;50.074;8.436;2023-08-12T10:24:16;24.50;99.90
582;DHT22;277;50.074;8.436;2023-08-12T10:26:45;24.30;99.90
582;DHT22;277;50.074;8.436;2023-08-12T10:29:13;24.20;99.90
582;DHT22;277;50.074;8.436;2023-08-12T10:31:41;24.10;99.90
582;DHT22;277;50.074;8.436;2023-08-12T10:34:18;23.90;99.90
582;DHT22;277;50.074;8.436;2023-08-12T10:36:47;23.80;99.90
582;DHT22;277;50.074;8.436;2023-08-12T10:39:32;23.50;99.90
582;DHT22;277;50.074;8.436;2023-08-12T10:42:00;23.30;99.90
582;DHT22;277;50.074;8.436;2023-08-12T10:44:38;23.30;99.90
582;DHT22;277;50.074;8.436;2023-08-12T10:47:09;23.20;99.90
582;DHT22;277;50.074;8.436;2023-08-12T10:49:39;23.10;99.90
582;DHT22;277;50.074;8.436;2023-08-12T10:52:26;22.90;99.90
582;DHT22;277;50.074;8.436;2023-08-12T10:54:56;22.80;99.90
582;DHT22;277;50.074;8.436;2023-08-12T10:57:43;22.70;99.90
582;DHT22;277;50.074;8.436;2023-08-12T11:00:14;22.50;99.90
582;DHT22;277;50.074;8.436;2023-08-12T11:02:48;22.50;99.90
582;DHT22;277;50.074;8.436;2023-08-12T11:05:16;22.50;99.90
582;DHT22;277;50.074;8.436;2023-08-12T11:07:46;22.40;99.90
582;DHT22;277;50.074;8.436;2023-08-12T11:10:19;22.50;99.90
582;DHT22;277;50.074;8.436;2023-08-12T11:12:53;22.50;99.90
582;DHT22;277;50.074;8.436;2023-08-12T11:15:30;22.60;99.90
582;DHT22;277;50.074;8.436;2023-08-12T11:18:01;22.60;99.90
582;DHT22;277;50.074;8.436;2023-08-12T11:20:30;22.60;99.90
582;DHT22;277;50.074;8.436;2023-08-12T11:22:59;22.60;99.90
582;DHT22;277;50.074;8.436;2023-08-12T11:25:30;23.10;99.90
582;DHT22;277;50.074;8.436;2023-08-12T11:27:58;23.90;99.90
582;DHT22;277;50.074;8.436;2023-08-12T11:30:26;24.30;99.90
582;DHT22;277;50.074;8.436;2023-08-12T11:32:59;24.60;99.90
582;DHT22;277;50.074;8.436;2023-08-12T11:35:29;24.70;99.90
582;DHT22;277;50.074;8.436;2023-08-12T11:37:58;24.80;99.90
582;DHT22;277;50.074;8.436;2023-08-12T11:40:27;25.00;99.90
582;DHT22;277;50.074;8.436;2023-08-12T11:42:59;25.10;99.90
582;DHT22;277;50.074;8.436;2023-08-12T11:45:27;25.00;99.90
582;DHT22;277;50.074;8.436;2023-08-12T11:47:55;24.90;99.90
582;DHT22;277;50.074;8.436;2023-08-12T11:50:26;24.90;99.90
582;DHT22;277;50.074;8.436;2023-08-12T11:52:55;24.40;99.90
582;DHT22;277;50.074;8.436;2023-08-12T11:55:24;24.30;99.90
582;DHT22;277;50.074;8.436;2023-08-12T11:57:52;24.20;99.90
582;DHT22;277;50.074;8.436;2023-08-12T12:00:21;24.10;99.90
582;DHT22;277;50.074;8.436;2023-08-12T12:02:54;23.90;99.90
582;DHT22;277;50.074;8.436;2023-08-12T12:05:23;23.70;99.90
582;DHT22;277;50.074;8.436;2023-08-12T12:07:53;23.50;99.90
582;DHT22;277;50.074;8.436;2023-08-12T12:10:25;23.30;99.90
582;DHT22;277;50.074;8.436;2023-08-12T12:12:59;23.10;99.90
582;DHT22;277;50.074;8.436;2023-08-12T12:15:29;23.00;99.90
582;DHT22;277;50.074;8.436;2023-08-12T12:17:57;22.90;99.90
582;DHT22;277;50.074;8.436;2023-08-12T12:20:25;23.00;99.90
582;DHT22;277;50.074;8.436;2023-08-12T12:22:56;22.90;99.90
582;DHT22;277;50.074;8.436;2023-08-12T12:25:23;22.90;99.90
582;DHT22;277;50.074;8.436;2023-08-12T12:27:52;22.90;99.90
582;DHT22;277;50.074;8.436;2023-08-12T12:30:20;23.10;99.90
582;DHT22;277;50.074;8.436;2023-08-12T12:32:50;23.10;99.90
582;DHT22;277;50.074;8.436;2023-08-12T12:35:18;23.10;99.90
582;DHT22;277;50.074;8.436;2023-08-12T12:37:47;23.10;99.90
582;DHT22;277;50.074;8.436;2023-08-12T12:40:15;23.20;99.90
582;DHT22;277;50.074;8.436;2023-08-12T12:42:43;23.30;99.90
582;DHT22;277;50.074;8.436;2023-08-12T12:45:11;23.40;99.90
582;DHT22;277;50.074;8.436;2023-08-12T12:47:39;23.60;99.90
582;DHT22;277;50.074;8.436;2023-08-12T12:50:09;23.90;99.90
582;DHT22;277;50.074;8.436;2023-08-12T12:52:37;24.00;99.90
582;DHT22;277;50.074;8.436;2023-08-12T12:55:08;24.00;99.90
582;DHT22;277;50.074;8.436;2023-08-12T12:57:36;24.10;99.90
582;DHT22;277;50.074;8.436;2023-08-12T13:00:05;24.20;99.90
582;DHT22;277;50.074;8.436;2023-08-12T13:02:38;24.60;99.90
582;DHT22;277;50.074;8.436;2023-08-12T13:05:06;25.20;99.90
582;DHT22;277;50.074;8.436;2023-08-12T13:07:36;25.70;99.90
582;DHT22;277;50.074;8.436;2023-08-12T13:10:05;26.30;99.90
582;DHT22;277;50.074;8.436;2023-08-12T13:12:34;26.70;99.90
582;DHT22;277;50.074;8.436;2023-08-12T13:15:02;27.00;99.90
582;DHT22;277;50.074;8.436;2023-08-12T13:17:30;27.00;99.90
582;DHT22;277;50.074;8.436;2023-08-12T13:19:58;27.00;99.90
582;DHT22;277;50.074;8.436;2023-08-12T13:22:26;27.40;99.90
582;DHT22;277;50.074;8.436;2023-08-12T13:24:55;27.80;99.90
582;DHT22;277;50.074;8.436;2023-08-12T13:27:23;28.30;99.90
582;DHT22;277;50.074;8.436;2023-08-12T13:29:51;28.30;99.90
582;DHT22;277;50.074;8.436;2023-08-12T13:32:19;28.00;99.90
582;DHT22;277;50.074;8.436;2023-08-12T13:34:47;27.90;99.90
582;DHT22;277;50.074;8.436;2023-08-12T13:37:15;28.10;99.90
582;DHT22;277;50.074;8.436;2023-08-12T13:39:43;27.90;99.90
582;DHT22;277;50.074;8.436;2023-08-12T13:42:12;27.70;99.90
582;DHT22;277;50.074;8.436;2023-08-12T13:44:41;27.40;99.90
582;DHT22;277;50.074;8.436;2023-08-12T13:47:09;27.20;99.90
582;DHT22;277;50.074;8.436;2023-08-12T13:49:37;27.00;99.90
582;DHT22;277;50.074;8.436;2023-08-12T13:52:05;26.80;99.90
582;DHT22;277;50.074;8.436;2023-08-12T13:54:33;26.70;99.90
582;DHT22;277;50.074;8.436;2023-08-12T13:57:02;26.50;99.90
582;DHT22;277;50.074;8.436;2023-08-12T13:59:32;26.40;99.90
582;DHT22;277;50.074;8.436;2023-08-12T14:02:00;26.30;99.90
582;DHT22;277;50.074;8.436;2023-08-12T14:04:28;26.30;99.90
582;DHT22;277;50.074;8.436;2023-08-12T14:06:56;26.30;99.90
582;DHT22;277;50.074;8.436;2023-08-12T14:09:24;26.40;99.90
582;DHT22;277;50.074;8.436;2023-08-12T14:11:52;26.40;99.90
582;DHT22;277;50.074;8.436;2023-08-12T14:14:19;26.40;99.90
582;DHT22;277;50.074;8.436;2023-08-12T14:16:49;27.00;99.90
582;DHT22;277;50.074;8.436;2023-08-12T14:19:17;27.10;99.90
582;DHT22;277;50.074;8.436;2023-08-12T14:21:45;27.20;99.90
582;DHT22;277;50.074;8.436;2023-08-12T14:24:13;27.10;99.90
582;DHT22;277;50.074;8.436;2023-08-12T14:26:41;27.20;99.90
582;DHT22;277;50.074;8.436;2023-08-12T14:29:09;27.20;99.90
582;DHT22;277;50.074;8.436;2023-08-12T14:31:37;27.40;99.90
582;DHT22;277;50.074;8.436;2023-08-12T14:34:07;27.50;99.90
582;DHT22;277;50.074;8.436;2023-08-12T14:36:34;27.60;99.90
582;DHT22;277;50.074;8.436;2023-08-12T14:39:03;27.90;99.90
582;DHT22;277;50.074;8.436;2023-08-12T14:41:31;28.10;99.90
582;DHT22;277;50.074;8.436;2023-08-12T14:43:58;28.10;99.90
582;DHT22;277;50.074;8.436;2023-08-12T14:46:26;28.10;99.90
582;DHT22;277;50.074;8.436;2023-08-12T14:48:54;27.60;99.90
582;DHT22;277;50.074;8.436;2023-08-12T14:51:24;27.40;99.90
582;DHT22;277;50.074;8.436;2023-08-12T14:53:53;27.20;99.90
582;DHT22;277;50.074;8.436;2023-08-12T14:56:20;26.90;99.90
582;DHT22;277;50.074;8.436;2023-08-12T14:58:48;26.80;99.90
582;DHT22;277;50.074;8.436;2023-08-12T15:01:16;26.70;99.90
582;DHT22;277;50.074;8.436;2023-08-12T15:03:44;26.50;99.90
582;DHT22;277;50.074;8.436;2023-08-12T15:06:12;26.20;99.90
582;DHT22;277;50.074;8.436;2023-08-12T15:08:42;26.20;99.90
582;DHT22;277;50.074;8.436;2023-08-12T15:11:10;26.30;99.90
582;DHT22;277;50.074;8.436;2023-08-12T15:13:38;26.30;99.90
582;DHT22;277;50.074;8.436;2023-08-12T15:16:06;26.30;99.90
582;DHT22;277;50.074;8.436;2023-08-12T15:18:34;26.10;99.90
582;DHT22;277;50.074;8.436;2023-08-12T15:21:02;25.80;99.90
582;DHT22;277;50.074;8.436;2023-08-12T15:23:30;25.70;99.90
582;DHT22;277;50.074;8.436;2023-08-12T15:26:01;25.70;99.90
582;DHT22;277;50.074;8.436;2023-08-12T15:28:29;25.60;99.90
582;DHT22;277;50.074;8.436;2023-08-12T15:30:57;25.50;99.90
582;DHT22;277;50.074;8.436;2023-08-12T15:33:25;25.40;99.90
582;DHT22;277;50.074;8.436;2023-08-12T15:35:53;25.30;99.90
582;DHT22;277;50.074;8.436;2023-08-12T15:38:21;25.30;99.90
582;DHT22;277;50.074;8.436;2023-08-12T15:40:49;25.30;99.90
582;DHT22;277;50.074;8.436;2023-08-12T15:43:18;25.20;99.90
582;DHT22;277;50.074;8.436;2023-08-12T15:45:46;25.20;99.90
582;DHT22;277;50.074;8.436;2023-08-12T15:48:14;25.20;99.90
582;DHT22;277;50.074;8.436;2023-08-12T15:50:43;25.20;99.90
582;DHT22;277;50.074;8.436;2023-08-12T15:53:11;25.20;99.90
582;DHT22;277;50.074;8.436;2023-08-12T15:55:40;25.10;99.90
582;DHT22;277;50.074;8.436;2023-08-12T15:58:08;25.10;99.90
582;DHT22;277;50.074;8.436;2023-08-12T16:00:37;25.20;99.90
582;DHT22;277;50.074;8.436;2023-08-12T16:03:09;25.10;99.90
582;DHT22;277;50.074;8.436;2023-08-12T16:05:37;25.10;99.90
582;DHT22;277;50.074;8.436;2023-08-12T16:08:05;25.10;99.90
582;DHT22;277;50.074;8.436;2023-08-12T16:10:35;25.10;99.90
582;DHT22;277;50.074;8.436;2023-08-12T16:13:04;25.20;99.90
582;DHT22;277;50.074;8.436;2023-08-12T16:15:32;25.20;99.90
582;DHT22;277;50.074;8.436;2023-08-12T16:18:01;25.20;99.90
582;DHT22;277;50.074;8.436;2023-08-12T16:20:29;25.20;99.90
582;DHT22;277;50.074;8.436;2023-08-12T16:22:57;25.20;99.90
582;DHT22;277;50.074;8.436;2023-08-12T16:25:25;25.10;99.90
582;DHT22;277;50.074;8.436;2023-08-12T16:27:53;25.00;99.90
582;DHT22;277;50.074;8.436;2023-08-12T16:30:21;24.90;99.90
582;DHT22;277;50.074;8.436;2023-08-12T16:32:49;24.90;99.90
582;DHT22;277;50.074;8.436;2023-08-12T16:35:19;24.80;99.90
582;DHT22;277;50.074;8.436;2023-08-12T16:37:47;24.70;99.90
582;DHT22;277;50.074;8.436;2023-08-12T16:40:16;24.70;99.90
582;DHT22;277;50.074;8.436;2023-08-12T16:42:44;24.70;99.90
582;DHT22;277;50.074;8.436;2023-08-12T16:45:12;24.70;99.90